Aviation Digital Data Service (ADDS)

Output produced by METARs form (1140 UTC 23 October 2014)
found at http://aviationweather.gov/adds/metars/
 
KGSO 231130Z 2312/2412 33007KT P6SM SKC 
     FM231500 31010G16KT P6SM SKC 
     FM232100 31005KT P6SM SCT250